Terminal Aerodrome Forecast
Issued by NWS

Home | Current Version | Previous Version | Text Only | Print | Product List | Glossary On
Versions: 1 2 3 4 5 6 7 8 9 10 11 12
527
FTUS42 KTAE 031720
TAFECP
TAF
KECP 031720Z 0318/0418 05009KT P6SM BKN080
     FM040900 08010G16KT P6SM BKN050
     FM041500 11012G20KT P6SM -RA BKN025=

USA.gov is the U.S. government's official web portal to all federal, state and local government web resources and services.